Have a Safe July 4th! 

Flight Track Log - Related Links

Times and Time Zones

All times are in EDT time to prevent confusion due to time zone crossing. See the SWA311 flight status page for this flight to view local times or setup timezone preferences in your user account.

Time Position Orientation Groundspeed Altitude Reporting Facility
EDT Latitude Longitude Course Direction KTS MPH feet Rate Location/Type
Thu 11:29:02 AM 32.7461 -117.2283 310° West 177 204 2,500  Level Los Angeles Center
Thu 11:30:04 AM 32.7819 -117.2800 310° West 193 222 6,300 4,016 Climbing Los Angeles Center
Thu 11:31:06 AM 32.8342 -117.3497 312° West 245 282 10,800 3,968 Climbing Los Angeles Center
Thu 11:32:08 AM 32.8894 -117.4281 310° West 282 325 14,500 3,581 Climbing Los Angeles Center
Thu 11:33:10 AM 32.9514 -117.5131 311° West 311 358 18,200 3,677 Climbing Los Angeles Center
Thu 11:34:00 AM 33.0460 -117.6310 310° West  Level FlightAware Approximate
Thu 11:34:12 AM 33.0147 -117.6019 310° West 333 383 22,100  Level Los Angeles Center
Thu 11:35:14 AM 33.0947 -117.7136 311° West 362 417 25,400 2,903 Climbing Los Angeles Center
Thu 11:36:16 AM 33.1642 -117.8108 310° West 379 436 28,100 2,468 Climbing Los Angeles Center
Thu 11:37:18 AM 33.2589 -117.8822 328° Northwest 402 463 30,500 2,565 Climbing Los Angeles Center
Thu 11:38:20 AM 33.3586 -117.9444 332° Northwest 405 466 33,400 2,565 Climbing Los Angeles Center
Thu 11:39:22 AM 33.4553 -118.0056 332° Northwest 398 458 35,800 1,935 Climbing Los Angeles Center
Thu 11:40:24 AM 33.5525 -118.0667 332° Northwest 394 453 37,400 1,984 Climbing Los Angeles Center
Thu 11:41:26 AM 33.6706 -118.1408 332° Northwest 398 458 39,900 1,248 Climbing Los Angeles Center
Thu 11:42:29 AM 33.7622 -118.1972 333° Northwest 377 434 40,000 48 Climbing Los Angeles Center
Thu 11:43:31 AM 33.8533 -118.2542 333° Northwest 370 426 40,000  Level Los Angeles Center
Thu 11:44:33 AM 33.9456 -118.3136 332° Northwest 374 430 40,000  Level Los Angeles Center
Thu 11:45:35 AM 34.0386 -118.3717 333° Northwest 376 433 40,000  Level Los Angeles Center
Thu 11:46:37 AM 34.1317 -118.4303 332° Northwest 376 433 40,000 -48 Level Los Angeles Center
Thu 11:47:39 AM 34.2431 -118.5025 332° Northwest 378 435 39,900 -581 Descending Los Angeles Center
Thu 11:48:41 AM 34.3353 -118.5619 332° Northwest 377 434 38,800 -919 Descending Los Angeles Center
Thu 11:49:43 AM 34.4292 -118.6211 333° Northwest 376 433 38,000 -387 Descending Los Angeles Center
Thu 11:50:45 AM 34.5208 -118.6811 332° Northwest 376 433 38,000  Level Los Angeles Center
Thu 11:51:47 AM 34.6139 -118.7397 333° Northwest 376 433 38,000  Level Los Angeles Center
Thu 11:52:49 AM 34.7139 -118.8056 332° Northwest 374 430 38,000  Level Los Angeles Center
Thu 11:53:51 AM 34.8053 -118.8647 332° Northwest 372 428 38,000  Level Los Angeles Center
Thu 11:54:53 AM 34.8844 -118.9417 321° Northwest 367 422 38,000  Level Los Angeles Center
Thu 11:55:55 AM 34.9700 -119.0256 321° Northwest 365 420 38,000  Level Los Angeles Center
Thu 11:56:57 AM 35.0506 -119.1033 322° Northwest 370 426 38,000  Level Los Angeles Center
Thu 11:57:59 AM 35.1317 -119.1819 322° Northwest 372 428 38,000  Level Los Angeles Center
Thu 11:59:01 AM 35.2114 -119.2603 321° Northwest 370 426 38,000  Level Los Angeles Center
Thu 12:00:04 PM 35.3075 -119.3553 321° Northwest 373 429 38,000  Level Los Angeles Center
Thu 12:01:06 PM 35.3881 -119.4333 322° Northwest 372 428 38,000  Level Los Angeles Center
Thu 12:02:08 PM 35.4667 -119.5122 321° Northwest 368 423 38,000  Level Los Angeles Center
Thu 12:03:10 PM 35.5453 -119.5903 321° Northwest 367 422 38,000  Level Los Angeles Center
Thu 12:04:12 PM 35.6250 -119.6681 322° Northwest 368 423 38,000  Level Los Angeles Center
Thu 12:05:14 PM 35.7169 -119.7611 321° Northwest 362 417 38,000  Level Los Angeles Center
Thu 12:06:26 PM 35.8083 -119.8522 321° Northwest 361 415 38,000  Level Oakland Center
Thu 12:07:28 PM 35.8856 -119.9294 321° Northwest 360 414 38,000  Level Oakland Center
Thu 12:08:29 PM 35.9628 -120.0078 321° Northwest 361 415 38,000  Level Oakland Center
Thu 12:09:30 PM 36.0408 -120.0883 320° Northwest 369 425 38,000  Level Oakland Center
Thu 12:10:32 PM 36.1175 -120.1661 321° Northwest 360 414 38,000  Level Oakland Center
Thu 12:11:33 PM 36.1936 -120.2439 320° Northwest 357 411 38,000 -1,366 Level Oakland Center
Thu 12:12:35 PM 36.2850 -120.3372 321° Northwest 356 410 35,200 -2,683 Descending Oakland Center
Thu 12:13:36 PM 36.3633 -120.4169 321° Northwest 364 419 32,500 -2,557 Descending Oakland Center
Thu 12:14:37 PM 36.4389 -120.4933 321° Northwest 351 404 30,000 -2,195 Descending Oakland Center
Thu 12:15:39 PM 36.5119 -120.5656 322° Northwest 339 390 28,000 -976 Descending Oakland Center
Thu 12:16:40 PM 36.5858 -120.6458 319° Northwest 354 407 28,000 -439 Level Oakland Center
Thu 12:17:42 PM 36.6586 -120.7206 321° Northwest 342 394 27,100 -2,000 Descending Oakland Center
Thu 12:18:43 PM 36.7350 -120.8028 319° Northwest 363 418 23,900 -2,902 Descending Oakland Center
Thu 12:19:44 PM 36.8067 -120.8806 319° Northwest 346 398 21,200 -2,146 Descending Oakland Center
Thu 12:20:46 PM 36.8831 -120.9683 317° Northwest 331 381 19,500 -1,317 Descending Oakland Center
Thu 12:21:47 PM 36.9469 -121.0392 318° Northwest 308 354 18,500 -927 Descending Oakland Center
Thu 12:22:49 PM 37.0086 -121.1111 317° Northwest 303 349 17,600 -927 Descending Oakland Center
Thu 12:23:50 PM 37.0722 -121.1861 317° Northwest 309 356 16,600 -1,220 Descending Oakland Center
Thu 12:24:52 PM 37.1333 -121.2569 317° Northwest 304 350 15,100 -1,610 Descending Oakland Center
Thu 12:25:53 PM 37.1933 -121.3261 317° Northwest 296 341 13,300 -1,967 Descending Oakland Center
Thu 12:26:54 PM 37.2622 -121.4078 317° Northwest 286 329 11,100 -1,659 Descending Oakland Center
Thu 12:27:56 PM 37.3183 -121.4731 317° Northwest 279 321 9,900 -1,220 Descending Oakland Center
Thu 12:28:57 PM 37.3700 -121.5325 318° Northwest 261 300 8,600 -1,415 Descending Oakland Center
Thu 12:29:59 PM 37.4228 -121.5944 317° Northwest 260 299 7,000 -1,317 Descending Oakland Center
Thu 12:31:00 PM 37.4769 -121.6542 319° Northwest 260 299 5,900 -541 Descending Oakland Center
Thu 12:32:01 PM 37.5219 -121.7028 319° Northwest 223 257 5,900 -439 Level Oakland Center
Thu 12:33:03 PM 37.5278 -121.7767 276° West 220 253 5,000 -661 Descending Oakland Center
Thu 12:33:59 PM 37.5333 -121.8667 274° West 217 250 4,600 -517 Descending Northern Cal TRACON
Thu 12:34:59 PM 37.5500 -121.9333 288° West 217 250 4,000 -500 Descending Northern Cal TRACON
Thu 12:35:59 PM 37.5500 -122.0000 270° West 194 223 3,600 -500 Descending Northern Cal TRACON
Thu 12:36:59 PM 37.6000 -122.0500 322° Northwest 195 224 3,000 -650 Descending Northern Cal TRACON
Thu 12:37:59 PM 37.6333 -122.1000 310° West 193 222 2,300 -550 Descending Northern Cal TRACON
Thu 12:38:59 PM 37.6500 -122.1500 293° West 133 153 1,900 -750 Descending Northern Cal TRACON
Thu 12:39:59 PM 37.6833 -122.1833 322° Northwest 129 148 800 8,044 Descending Northern Cal TRACON
Thu 12:41:14 PM 37.7017 -122.2147 306° West 130 150 20,000 15,360 Climbing Oakland Center
Thu 12:43:00 PM 37.7167 -122.2167 270° West  Level FlightAware Approximate

Login

Don't have an account? Register now (free) for customized features, flight alerts, and more!